Time;durP1;ratioP1;P1;durP2;ratioP2;P2;SDS_P1;SDS_P2;PMS_P1;PMS_P2;Temp;Humidity;BMP_temperature;BMP_pressure;BME280_temperature;BME280_humidity;BME280_pressure;Samples;Min_cycle;Max_cycle;Signal;HPM_P1;HPM_P2
2021/06/10 00:00:32;;;;;;;6.15;5.55;;;;;;;;;;5063941;27;38265;-81
2021/06/10 00:02:59;;;;;;;7.38;5.32;;;;;;;;;;5047418;27;38435;-81
2021/06/10 00:05:26;;;;;;;6.85;5.10;;;;;;;;;;5053374;27;37527;-80
2021/06/10 00:20:08;;;;;;;7.63;6.93;;;;;;;;;;5055768;27;37233;-80
2021/06/10 00:22:34;;;;;;;9.05;7.65;;;;;;;;;;5060321;27;38103;-81
2021/06/10 00:25:01;;;;;;;8.77;7.70;;;;;;;;;;5054820;27;37666;-81
2021/06/10 00:27:27;;;;;;;9.95;8.95;;;;;;;;;;5050790;28;37555;-81
2021/06/10 00:29:54;;;;;;;10.50;8.10;;;;;;;;;;5051871;27;40664;-80
2021/06/10 00:32:20;;;;;;;10.10;8.30;;;;;;;;;;5064541;27;38693;-80
2021/06/10 00:34:46;;;;;;;10.75;9.75;;;;;;;;;;5074136;27;39726;-81
2021/06/10 00:37:13;;;;;;;10.48;9.38;;;;;;;;;;5066519;28;37193;-81
2021/06/10 00:39:40;;;;;;;13.02;9.80;;;;;;;;;;5056745;28;39540;-81
2021/06/10 00:42:07;;;;;;;10.93;9.85;;;;;;;;;;5050368;28;39068;-81
2021/06/10 00:44:36;;;;;;;11.57;10.48;;;;;;;;;;5059817;28;38167;-82
2021/06/10 00:47:04;;;;;;;11.82;10.68;;;;;;;;;;5050898;27;35651;-80
2021/06/10 00:49:30;;;;;;;14.38;11.73;;;;;;;;;;5035563;28;39210;-81
2021/06/10 00:51:57;;;;;;;14.75;13.05;;;;;;;;;;5044365;28;40762;-81
2021/06/10 00:54:23;;;;;;;13.95;12.48;;;;;;;;;;5033759;28;38176;-80
2021/06/10 00:56:52;;;;;;;17.60;13.32;;;;;;;;;;5037489;28;37682;-81
2021/06/10 00:59:18;;;;;;;16.08;14.00;;;;;;;;;;5033496;28;40268;-81
2021/06/10 01:01:45;;;;;;;19.25;15.63;;;;;;;;;;5029330;28;39012;-81
2021/06/10 01:04:11;;;;;;;16.52;14.77;;;;;;;;;;5031684;28;38115;-81
2021/06/10 01:06:38;;;;;;;18.30;16.38;;;;;;;;;;5037651;28;37063;-80
2021/06/10 01:09:06;;;;;;;17.17;15.38;;;;;;;;;;5031752;28;39551;-81
2021/06/10 01:11:37;;;;;;;18.63;16.73;;;;;;;;;;5061448;27;39664;-81
2021/06/10 01:14:24;;;;;;;17.42;15.63;;;;;;;;;;5029789;28;38999;-81
2021/06/10 01:16:51;;;;;;;17.85;16.05;;;;;;;;;;5038346;28;37081;-81
2021/06/10 01:19:36;;;;;;;18.33;16.42;;;;;;;;;;5028946;28;39665;-82
2021/06/10 01:22:04;;;;;;;20.02;16.35;;;;;;;;;;5030931;28;38005;-82
2021/06/10 01:24:43;;;;;;;21.55;18.13;;;;;;;;;;5051061;28;37039;-82
2021/06/10 01:27:29;;;;;;;19.10;17.17;;;;;;;;;;5031866;27;38268;-81
2021/06/10 01:29:59;;;;;;;18.73;16.83;;;;;;;;;;5034987;28;39778;-83
2021/06/10 01:32:25;;;;;;;18.42;16.55;;;;;;;;;;5030137;28;39814;-83
2021/06/10 01:34:53;;;;;;;19.30;17.25;;;;;;;;;;5036967;28;38303;-82
2021/06/10 01:37:20;;;;;;;20.77;17.67;;;;;;;;;;5030389;28;37443;-82
2021/06/10 01:39:49;;;;;;;20.15;17.55;;;;;;;;;;5027420;28;38995;-83
2021/06/10 01:42:16;;;;;;;20.45;18.33;;;;;;;;;;5035902;28;38638;-83
2021/06/10 01:44:43;;;;;;;21.27;19.08;;;;;;;;;;5039813;28;38385;-83
2021/06/10 01:47:10;;;;;;;24.33;21.70;;;;;;;;;;5041874;28;37129;-83
2021/06/10 01:49:37;;;;;;;22.73;20.42;;;;;;;;;;5041798;28;40365;-84
2021/06/10 01:52:04;;;;;;;21.02;18.83;;;;;;;;;;5035650;27;38457;-83
2021/06/10 01:54:32;;;;;;;22.52;20.25;;;;;;;;;;5074473;28;39076;-82
2021/06/10 01:56:59;;;;;;;21.52;19.33;;;;;;;;;;5038576;28;38405;-83
2021/06/10 01:59:26;;;;;;;27.10;22.70;;;;;;;;;;5028235;28;38127;-87
2021/06/10 02:01:53;;;;;;;23.52;21.15;;;;;;;;;;5037036;28;38384;-82
2021/06/10 02:04:22;;;;;;;24.48;20.45;;;;;;;;;;5066951;28;38861;-85
2021/06/10 02:06:49;;;;;;;26.95;22.67;;;;;;;;;;5075839;27;38008;-82
2021/06/10 02:09:16;;;;;;;28.02;23.95;;;;;;;;;;5030213;28;39090;-84
2021/06/10 02:11:42;;;;;;;33.60;26.95;;;;;;;;;;5035601;28;39091;-81
2021/06/10 02:14:11;;;;;;;29.38;26.17;;;;;;;;;;5034955;28;38051;-83
2021/06/10 02:16:42;;;;;;;29.92;26.60;;;;;;;;;;5063738;28;36112;-81
2021/06/10 02:19:09;;;;;;;27.08;24.15;;;;;;;;;;5038909;28;39746;-83
2021/06/10 02:21:36;;;;;;;28.55;25.52;;;;;;;;;;5029643;28;38750;-82
2021/06/10 02:24:02;;;;;;;25.02;22.17;;;;;;;;;;5030527;28;38902;-82
2021/06/10 02:26:28;;;;;;;29.33;25.85;;;;;;;;;;5028210;27;37734;-82
2021/06/10 02:28:55;;;;;;;30.77;25.75;;;;;;;;;;5025709;28;38684;-81
2021/06/10 02:31:21;;;;;;;21.13;18.83;;;;;;;;;;5042753;28;38397;-82
2021/06/10 02:33:48;;;;;;;21.27;17.63;;;;;;;;;;5030339;28;38503;-82
2021/06/10 02:36:16;;;;;;;21.27;18.98;;;;;;;;;;5034078;28;36969;-81
2021/06/10 02:38:49;;;;;;;18.40;15.68;;;;;;;;;;5029828;28;39115;-80
2021/06/10 02:41:15;;;;;;;;;;;;;;;;;;5024051;28;38115;-81
2021/06/10 02:43:41;;;;;;;15.27;13.27;;;;;;;;;;5069774;28;37917;-82
2021/06/10 02:46:10;;;;;;;18.35;13.85;;;;;;;;;;5057270;28;36489;-83
2021/06/10 02:48:37;;;;;;;16.08;14.30;;;;;;;;;;5035219;28;40123;-83
2021/06/10 02:51:04;;;;;;;15.32;13.25;;;;;;;;;;5030643;28;38766;-83
2021/06/10 02:53:31;;;;;;;13.38;11.98;;;;;;;;;;5039622;28;37000;-82
2021/06/10 02:56:00;;;;;;;13.95;12.10;;;;;;;;;;5032298;28;36178;-82
2021/06/10 02:58:27;;;;;;;12.27;10.73;;;;;;;;;;5050543;27;47698;-83
2021/06/10 03:00:54;;;;;;;13.57;9.57;;;;;;;;;;5049953;28;37173;-82
2021/06/10 03:03:21;;;;;;;15.63;10.65;;;;;;;;;;5052847;27;37832;-83
2021/06/10 03:05:48;;;;;;;14.60;10.60;;;;;;;;;;5051876;28;36593;-83
2021/06/10 03:08:16;;;;;;;13.05;9.98;;;;;;;;;;5051704;28;38265;-83
2021/06/10 03:10:43;;;;;;;11.00;8.90;;;;;;;;;;5075143;27;37276;-83
2021/06/10 03:13:12;;;;;;;16.10;10.00;;;;;;;;;;5047665;28;38939;-83
2021/06/10 03:15:39;;;;;;;10.45;9.35;;;;;;;;;;5047908;27;36768;-83
2021/06/10 03:18:05;;;;;;;11.85;10.15;;;;;;;;;;5048854;28;38979;-83
2021/06/10 03:20:32;;;;;;;13.32;9.75;;;;;;;;;;5046289;28;39939;-83
2021/06/10 03:22:59;;;;;;;10.65;9.55;;;;;;;;;;5055766;28;39128;-83
2021/06/10 03:25:26;;;;;;;11.20;8.98;;;;;;;;;;5048281;27;37250;-83
2021/06/10 03:27:52;;;;;;;13.40;9.13;;;;;;;;;;5057063;28;39891;-81
2021/06/10 03:30:19;;;;;;;11.30;9.23;;;;;;;;;;5079054;27;38989;-81
2021/06/10 03:32:46;;;;;;;11.82;10.05;;;;;;;;;;5046184;28;39781;-83
2021/06/10 03:35:13;;;;;;;16.70;11.25;;;;;;;;;;5052031;28;37680;-82
2021/06/10 03:37:40;;;;;;;13.25;10.85;;;;;;;;;;5047181;28;39539;-82
2021/06/10 03:40:08;;;;;;;13.00;8.90;;;;;;;;;;5044936;27;39562;-82
2021/06/10 03:42:35;;;;;;;12.63;9.00;;;;;;;;;;5049394;28;38507;-82
2021/06/10 03:45:03;;;;;;;14.52;8.77;;;;;;;;;;5055747;28;35118;-83
2021/06/10 03:47:29;;;;;;;14.88;9.20;;;;;;;;;;5035420;28;47098;-83
2021/06/10 03:49:56;;;;;;;10.77;9.02;;;;;;;;;;5054757;28;37792;-82
2021/06/10 03:52:23;;;;;;;11.25;8.95;;;;;;;;;;5050428;27;37648;-82
2021/06/10 03:54:50;;;;;;;11.68;8.52;;;;;;;;;;5048801;28;35236;-81
2021/06/10 03:57:16;;;;;;;10.93;9.30;;;;;;;;;;5048217;28;37826;-81
2021/06/10 03:59:42;;;;;;;12.77;9.13;;;;;;;;;;5058917;27;39651;-81
2021/06/10 04:02:09;;;;;;;11.82;7.97;;;;;;;;;;5048495;27;39316;-81
2021/06/10 04:04:35;;;;;;;9.20;8.02;;;;;;;;;;5052011;28;36082;-81
2021/06/10 04:07:02;;;;;;;10.20;7.70;;;;;;;;;;5046985;27;39814;-82
2021/06/10 04:09:28;;;;;;;10.20;8.18;;;;;;;;;;5054419;27;38563;-82
2021/06/10 04:11:55;;;;;;;10.13;8.10;;;;;;;;;;5054823;28;36707;-82
2021/06/10 04:14:21;;;;;;;9.60;8.52;;;;;;;;;;5057732;28;36732;-82
2021/06/10 04:16:47;;;;;;;9.77;7.88;;;;;;;;;;5052726;27;38909;-82
2021/06/10 04:19:14;;;;;;;8.90;6.70;;;;;;;;;;5044125;27;37429;-81
2021/06/10 04:21:41;;;;;;;6.63;5.85;;;;;;;;;;5048562;27;38923;-82
2021/06/10 04:24:07;;;;;;;12.52;7.20;;;;;;;;;;5065747;28;36030;-83
2021/06/10 04:26:36;;;;;;;9.68;7.15;;;;;;;;;;5057156;27;38000;-82
2021/06/10 04:29:03;;;;;;;7.88;7.05;;;;;;;;;;5057920;27;39591;-81
2021/06/10 04:31:29;;;;;;;8.25;6.53;;;;;;;;;;5051614;27;39009;-79
2021/06/10 04:33:56;;;;;;;8.50;6.82;;;;;;;;;;5051597;27;35230;-81
2021/06/10 04:36:22;;;;;;;9.48;5.75;;;;;;;;;;5049714;28;38360;-82
2021/06/10 04:38:52;;;;;;;8.15;5.85;;;;;;;;;;5052481;28;37787;-82
2021/06/10 04:41:18;;;;;;;9.40;5.80;;;;;;;;;;5054444;27;37686;-82
2021/06/10 04:43:44;;;;;;;8.45;5.05;;;;;;;;;;5051348;28;36537;-82
2021/06/10 04:46:11;;;;;;;7.72;5.28;;;;;;;;;;5052148;28;39791;-83
2021/06/10 04:48:37;;;;;;;6.93;5.13;;;;;;;;;;5051192;28;39947;-81
2021/06/10 04:51:04;;;;;;;6.05;4.90;;;;;;;;;;5051136;27;38116;-82
2021/06/10 04:53:31;;;;;;;6.07;4.35;;;;;;;;;;5051511;28;37551;-82
2021/06/10 04:55:58;;;;;;;5.00;4.38;;;;;;;;;;5054660;27;39600;-82
2021/06/10 04:58:24;;;;;;;8.57;5.95;;;;;;;;;;5051492;27;38700;-82
2021/06/10 05:00:50;;;;;;;6.50;4.18;;;;;;;;;;5056599;28;40196;-82
2021/06/10 05:03:21;;;;;;;5.25;3.83;;;;;;;;;;5056771;27;36818;-82
2021/06/10 05:05:48;;;;;;;4.30;3.13;;;;;;;;;;5050370;28;40080;-81
2021/06/10 05:08:14;;;;;;;4.30;3.00;;;;;;;;;;5066282;28;39205;-81
2021/06/10 05:10:42;;;;;;;6.32;3.40;;;;;;;;;;5075711;27;38035;-81
2021/06/10 05:13:08;;;;;;;3.83;2.90;;;;;;;;;;5062431;27;37541;-81
2021/06/10 05:15:35;;;;;;;6.60;2.92;;;;;;;;;;5056694;28;38136;-81
2021/06/10 05:18:01;;;;;;;5.32;2.80;;;;;;;;;;5063199;27;39423;-81
2021/06/10 05:20:28;;;;;;;7.05;3.42;;;;;;;;;;5056147;27;49023;-80
2021/06/10 05:22:54;;;;;;;4.68;3.10;;;;;;;;;;5057082;27;34033;-80
2021/06/10 05:25:20;;;;;;;4.88;2.55;;;;;;;;;;5058963;27;40061;-80
2021/06/10 05:27:47;;;;;;;6.88;2.70;;;;;;;;;;5058322;28;38881;-80
2021/06/10 05:30:13;;;;;;;5.80;2.78;;;;;;;;;;5057514;27;38246;-80
2021/06/10 05:32:40;;;;;;;6.55;3.13;;;;;;;;;;5060643;28;36886;-80
2021/06/10 05:35:07;;;;;;;5.18;2.80;;;;;;;;;;5055693;27;39346;-80
2021/06/10 05:37:33;;;;;;;6.55;3.17;;;;;;;;;;5071187;27;40597;-79
2021/06/10 05:39:59;;;;;;;6.93;3.40;;;;;;;;;;5061941;28;37049;-81
2021/06/10 05:42:26;;;;;;;4.05;2.50;;;;;;;;;;5051331;28;37038;-81
2021/06/10 05:44:52;;;;;;;5.70;3.08;;;;;;;;;;5055652;27;40014;-82
2021/06/10 05:47:18;;;;;;;5.43;2.55;;;;;;;;;;5055577;27;38124;-81
2021/06/10 05:49:46;;;;;;;8.35;3.05;;;;;;;;;;5050457;28;38951;-81
2021/06/10 05:52:12;;;;;;;9.98;3.00;;;;;;;;;;5048949;27;36551;-81
2021/06/10 05:54:38;;;;;;;3.15;2.85;;;;;;;;;;5058601;28;38979;-81
2021/06/10 05:57:05;;;;;;;6.47;3.03;;;;;;;;;;5059467;27;39583;-80
2021/06/10 05:59:31;;;;;;;4.60;3.20;;;;;;;;;;5060916;28;39287;-80
2021/06/10 06:01:58;;;;;;;6.88;3.13;;;;;;;;;;5054474;27;36843;-81
2021/06/10 06:04:24;;;;;;;3.92;3.10;;;;;;;;;;5055944;27;39009;-79
2021/06/10 06:06:51;;;;;;;5.32;3.15;;;;;;;;;;5055941;27;38707;-81
2021/06/10 06:09:17;;;;;;;6.65;3.13;;;;;;;;;;5063016;27;38941;-80
2021/06/10 06:11:44;;;;;;;5.80;2.92;;;;;;;;;;5064268;28;37117;-79
2021/06/10 06:14:13;;;;;;;6.90;3.35;;;;;;;;;;5062059;28;40664;-80
2021/06/10 06:16:44;;;;;;;7.82;3.58;;;;;;;;;;5053883;28;39770;-78
2021/06/10 06:19:13;;;;;;;7.82;3.50;;;;;;;;;;5061608;28;36911;-80
2021/06/10 06:21:43;;;;;;;5.57;3.38;;;;;;;;;;5058407;28;37447;-80
2021/06/10 06:24:11;;;;;;;6.50;4.15;;;;;;;;;;5057422;27;39248;-80
2021/06/10 06:26:37;;;;;;;7.15;4.28;;;;;;;;;;5049960;28;39672;-80
2021/06/10 06:29:04;;;;;;;5.15;3.70;;;;;;;;;;5058209;28;38642;-80
2021/06/10 06:31:30;;;;;;;5.88;3.92;;;;;;;;;;5063337;28;37926;-81
2021/06/10 06:33:57;;;;;;;5.13;4.32;;;;;;;;;;5055470;27;40184;-79
2021/06/10 06:36:23;;;;;;;4.85;4.10;;;;;;;;;;5058427;27;39579;-80
2021/06/10 06:38:50;;;;;;;7.63;5.25;;;;;;;;;;5052187;28;39545;-80
2021/06/10 06:41:16;;;;;;;7.32;4.55;;;;;;;;;;5042140;27;36627;-80
2021/06/10 06:43:43;;;;;;;8.98;5.82;;;;;;;;;;5037623;28;37393;-81
2021/06/10 06:46:09;;;;;;;5.97;4.97;;;;;;;;;;5035504;28;39591;-80
2021/06/10 06:48:36;;;;;;;7.97;5.80;;;;;;;;;;5060014;28;38988;-79
2021/06/10 06:51:03;;;;;;;7.65;5.50;;;;;;;;;;5077647;28;37308;-81
2021/06/10 06:53:30;;;;;;;10.38;6.05;;;;;;;;;;5036646;28;38671;-81
2021/06/10 06:55:57;;;;;;;8.77;5.35;;;;;;;;;;5072046;28;39059;-79
2021/06/10 06:58:24;;;;;;;7.22;5.13;;;;;;;;;;5065504;28;38245;-80
2021/06/10 07:00:50;;;;;;;9.13;5.22;;;;;;;;;;5030857;28;36902;-79
2021/06/10 07:03:17;;;;;;;10.38;6.15;;;;;;;;;;5040743;28;39446;-81
2021/06/10 07:05:43;;;;;;;5.97;4.95;;;;;;;;;;5042380;28;40275;-80
2021/06/10 07:08:09;;;;;;;9.90;6.00;;;;;;;;;;5031712;28;38449;-79
2021/06/10 07:10:36;;;;;;;10.18;6.47;;;;;;;;;;5031356;28;35294;-82
2021/06/10 07:13:02;;;;;;;10.77;6.97;;;;;;;;;;5042406;28;39065;-79
2021/06/10 07:15:29;;;;;;;8.13;6.72;;;;;;;;;;5062217;28;38703;-80
2021/06/10 07:17:55;;;;;;;9.00;5.90;;;;;;;;;;5042839;28;38393;-79
2021/06/10 07:20:22;;;;;;;9.07;5.75;;;;;;;;;;5063048;28;37808;-80
2021/06/10 07:22:49;;;;;;;9.85;6.05;;;;;;;;;;5062491;28;39564;-80
2021/06/10 07:25:15;;;;;;;7.90;6.32;;;;;;;;;;5034309;27;38593;-80
2021/06/10 07:27:43;;;;;;;7.50;6.38;;;;;;;;;;5060718;28;38776;-79
2021/06/10 07:30:10;;;;;;;7.25;5.70;;;;;;;;;;5035468;27;37770;-80
2021/06/10 07:32:36;;;;;;;8.65;6.03;;;;;;;;;;5063163;28;38497;-80
2021/06/10 07:35:03;;;;;;;8.32;6.13;;;;;;;;;;5072548;28;38331;-80
2021/06/10 07:37:30;;;;;;;8.57;6.80;;;;;;;;;;5043856;28;37766;-80
2021/06/10 07:39:56;;;;;;;9.38;5.93;;;;;;;;;;5066004;28;37692;-79
2021/06/10 07:42:23;;;;;;;7.95;6.50;;;;;;;;;;5038198;28;38717;-80
2021/06/10 07:44:49;;;;;;;8.23;5.55;;;;;;;;;;5058679;28;39273;-81
2021/06/10 07:47:16;;;;;;;7.50;5.57;;;;;;;;;;5024369;28;38707;-80
2021/06/10 07:49:42;;;;;;;7.55;5.68;;;;;;;;;;5032209;28;36948;-80
2021/06/10 07:52:09;;;;;;;8.07;5.72;;;;;;;;;;5042372;27;38887;-80
2021/06/10 07:54:36;;;;;;;6.78;5.30;;;;;;;;;;5071224;28;38294;-78
2021/06/10 07:57:03;;;;;;;8.02;5.57;;;;;;;;;;5065504;28;38863;-78
2021/06/10 07:59:32;;;;;;;8.15;5.93;;;;;;;;;;5058412;28;37987;-79
2021/06/10 08:01:58;;;;;;;5.75;5.13;;;;;;;;;;5036538;27;40214;-78
2021/06/10 08:04:25;;;;;;;8.10;7.25;;;;;;;;;;5076618;28;40201;-79
2021/06/10 08:06:51;;;;;;;9.63;6.10;;;;;;;;;;5027853;28;38309;-78
2021/06/10 08:09:18;;;;;;;6.25;5.47;;;;;;;;;;5025393;28;37927;-78
2021/06/10 08:11:45;;;;;;;7.38;6.50;;;;;;;;;;5031084;28;38779;-78
2021/06/10 08:14:12;;;;;;;7.03;6.10;;;;;;;;;;5025413;28;38944;-80
2021/06/10 08:16:38;;;;;;;7.60;6.38;;;;;;;;;;5032900;28;38024;-79
2021/06/10 08:19:05;;;;;;;8.20;6.40;;;;;;;;;;5077571;28;38237;-79
2021/06/10 08:21:31;;;;;;;7.32;6.00;;;;;;;;;;5059344;28;40434;-79
2021/06/10 08:23:58;;;;;;;10.20;6.75;;;;;;;;;;5024736;28;40492;-80
2021/06/10 08:26:25;;;;;;;6.38;5.53;;;;;;;;;;5040552;27;38034;-80
2021/06/10 08:28:51;;;;;;;7.40;6.25;;;;;;;;;;5064328;28;37338;-80
2021/06/10 08:31:18;;;;;;;6.70;5.32;;;;;;;;;;5066977;27;39974;-79
2021/06/10 08:33:44;;;;;;;7.60;6.25;;;;;;;;;;5070736;27;38517;-79
2021/06/10 08:36:11;;;;;;;6.22;5.63;;;;;;;;;;5063773;28;38698;-79
2021/06/10 08:38:38;;;;;;;10.90;5.65;;;;;;;;;;5070331;27;36463;-80
2021/06/10 08:41:05;;;;;;;7.53;6.03;;;;;;;;;;5052776;27;38970;-79
2021/06/10 08:43:31;;;;;;;8.48;6.90;;;;;;;;;;5048246;28;37278;-80
2021/06/10 08:46:05;;;;;;;8.88;7.85;;;;;;;;;;5041492;28;39352;-80
2021/06/10 08:48:36;;;;;;;7.40;6.35;;;;;;;;;;5066945;28;47747;-79
2021/06/10 08:51:03;;;;;;;6.97;6.25;;;;;;;;;;5054672;27;38855;-80
2021/06/10 08:53:29;;;;;;;7.85;6.13;;;;;;;;;;5046442;28;37419;-82
2021/06/10 08:55:56;;;;;;;7.38;5.88;;;;;;;;;;5051038;27;38022;-81
2021/06/10 08:58:24;;;;;;;9.32;6.18;;;;;;;;;;5046087;28;37182;-79
2021/06/10 09:00:50;;;;;;;7.78;6.70;;;;;;;;;;5069217;28;41589;-80
2021/06/10 09:03:24;;;;;;;8.38;6.50;;;;;;;;;;5061717;28;38606;-78
2021/06/10 09:06:07;;;;;;;9.07;7.43;;;;;;;;;;5029878;28;37729;-79
2021/06/10 09:08:37;;;;;;;10.93;7.15;;;;;;;;;;5046867;28;48982;-80
2021/06/10 09:11:05;;;;;;;8.25;6.88;;;;;;;;;;5067411;28;39932;-81
2021/06/10 09:13:57;;;;;;;7.78;6.72;;;;;;;;;;5044067;28;38510;-80
2021/06/10 09:16:27;;;;;;;8.27;7.20;;;;;;;;;;5034649;28;39417;-81
2021/06/10 09:19:16;;;;;;;11.05;7.55;;;;;;;;;;5036140;28;37003;-80
2021/06/10 09:21:56;;;;;;;10.90;7.55;;;;;;;;;;5037768;28;48650;-81
2021/06/10 09:24:25;;;;;;;10.23;7.38;;;;;;;;;;5059560;28;39095;-79
2021/06/10 09:26:59;;;;;;;9.25;8.00;;;;;;;;;;5061799;27;37152;-79
2021/06/10 09:29:59;;;;;;;10.90;8.60;;;;;;;;;;5043732;28;36704;-81
2021/06/10 09:32:27;;;;;;;11.40;8.32;;;;;;;;;;5018753;28;39178;-81
2021/06/10 09:34:56;;;;;;;11.65;7.97;;;;;;;;;;5071797;28;39336;-82
2021/06/10 09:37:30;;;;;;;10.68;7.45;;;;;;;;;;5033695;28;38011;-81
2021/06/10 09:39:58;;;;;;;8.75;6.93;;;;;;;;;;5073379;28;37752;-79
2021/06/10 09:42:25;;;;;;;12.95;8.43;;;;;;;;;;5040300;28;38605;-80
2021/06/10 09:44:58;;;;;;;9.85;7.38;;;;;;;;;;5064728;28;39008;-80
2021/06/10 09:47:28;;;;;;;8.73;6.43;;;;;;;;;;5027591;28;39122;-79
2021/06/10 09:49:54;;;;;;;12.15;7.97;;;;;;;;;;5036639;28;36943;-80
2021/06/10 09:52:22;;;;;;;13.40;8.32;;;;;;;;;;5071429;27;41144;-79
2021/06/10 09:54:55;;;;;;;11.43;7.50;;;;;;;;;;5039799;28;38790;-80
2021/06/10 09:57:21;;;;;;;11.98;8.05;;;;;;;;;;5030237;28;38555;-80
2021/06/10 09:59:48;;;;;;;12.18;7.47;;;;;;;;;;5064930;28;37523;-80
2021/06/10 10:02:24;;;;;;;12.85;8.32;;;;;;;;;;5031558;28;39795;-78
2021/06/10 10:04:58;;;;;;;10.63;7.80;;;;;;;;;;5036484;28;39119;-80
2021/06/10 10:07:28;;;;;;;10.07;7.50;;;;;;;;;;5029774;28;39074;-79
2021/06/10 10:09:58;;;;;;;8.70;7.47;;;;;;;;;;5028740;28;37159;-80
2021/06/10 10:12:25;;;;;;;12.88;8.30;;;;;;;;;;5059412;28;41776;-79
2021/06/10 10:14:53;;;;;;;10.93;7.50;;;;;;;;;;5066779;28;39817;-79
2021/06/10 10:17:20;;;;;;;9.95;7.43;;;;;;;;;;5031680;28;37769;-79
2021/06/10 10:19:46;;;;;;;10.27;7.45;;;;;;;;;;5067054;28;38504;-80
2021/06/10 10:22:13;;;;;;;9.23;8.20;;;;;;;;;;5040726;28;38902;-80
2021/06/10 10:24:40;;;;;;;9.68;8.68;;;;;;;;;;5066820;28;39117;-80
2021/06/10 10:27:12;;;;;;;11.02;8.77;;;;;;;;;;5034811;28;38966;-80
2021/06/10 10:29:39;;;;;;;11.50;7.78;;;;;;;;;;5033159;28;37767;-82
2021/06/10 10:32:07;;;;;;;9.85;8.07;;;;;;;;;;5041977;28;39375;-82
2021/06/10 10:34:38;;;;;;;14.05;10.00;;;;;;;;;;5068821;28;39641;-80
2021/06/10 10:37:17;;;;;;;10.88;7.32;;;;;;;;;;5033349;27;38115;-80
2021/06/10 10:39:44;;;;;;;9.07;6.22;;;;;;;;;;5068940;28;37493;-80
2021/06/10 10:42:10;;;;;;;7.43;6.05;;;;;;;;;;5040698;28;39793;-81
2021/06/10 10:44:38;;;;;;;6.82;5.80;;;;;;;;;;5064529;28;39034;-80
2021/06/10 10:47:08;;;;;;;8.80;5.85;;;;;;;;;;5054255;27;37987;-81
2021/06/10 10:49:45;;;;;;;7.00;6.03;;;;;;;;;;5061642;28;37171;-79
2021/06/10 10:52:18;;;;;;;7.38;6.15;;;;;;;;;;5068060;27;38957;-80
2021/06/10 10:54:48;;;;;;;7.35;5.75;;;;;;;;;;5056357;28;38566;-80
2021/06/10 10:57:42;;;;;;;6.90;5.47;;;;;;;;;;5051176;28;38128;-79
2021/06/10 11:00:13;;;;;;;8.55;6.20;;;;;;;;;;5050019;28;37747;-79
2021/06/10 11:02:47;;;;;;;11.73;6.25;;;;;;;;;;5052833;28;40222;-79
2021/06/10 11:05:27;;;;;;;7.78;5.85;;;;;;;;;;5058357;27;38433;-78
2021/06/10 11:07:54;;;;;;;6.13;5.53;;;;;;;;;;5061244;28;39299;-79
2021/06/10 11:10:39;;;;;;;5.93;5.30;;;;;;;;;;5052135;27;37186;-81
2021/06/10 11:13:15;;;;;;;7.25;6.07;;;;;;;;;;5055906;27;38850;-78
2021/06/10 11:15:52;;;;;;;7.80;5.93;;;;;;;;;;5061046;28;38941;-80
2021/06/10 11:18:37;;;;;;;6.28;5.68;;;;;;;;;;5056552;28;39316;-80
2021/06/10 11:21:04;;;;;;;5.20;4.20;;;;;;;;;;5060709;28;37837;-82
2021/06/10 11:23:30;;;;;;;5.68;4.32;;;;;;;;;;5058624;28;38870;-80
2021/06/10 11:26:01;;;;;;;5.47;4.88;;;;;;;;;;5064329;28;40390;-80
2021/06/10 11:28:29;;;;;;;6.15;4.40;;;;;;;;;;5081530;28;39066;-80
2021/06/10 11:31:14;;;;;;;5.50;4.70;;;;;;;;;;5063288;28;37613;-80
2021/06/10 11:33:41;;;;;;;6.22;5.30;;;;;;;;;;5047648;28;47940;-82
2021/06/10 11:36:09;;;;;;;4.72;4.03;;;;;;;;;;5058956;27;38478;-79
2021/06/10 11:38:39;;;;;;;4.28;3.50;;;;;;;;;;5068017;27;39649;-81
2021/06/10 11:41:06;;;;;;;5.18;3.75;;;;;;;;;;5050319;28;37284;-79
2021/06/10 11:43:38;;;;;;;4.72;3.45;;;;;;;;;;5047849;28;39948;-80
2021/06/10 11:46:04;;;;;;;;;;;;;;;;;;5058148;28;39280;-80
2021/06/10 11:48:35;;;;;;;7.43;3.78;;;;;;;;;;5052459;28;38809;-80
2021/06/10 11:51:01;;;;;;;5.50;4.13;;;;;;;;;;5055619;28;37822;-79
2021/06/10 11:53:28;;;;;;;5.38;3.78;;;;;;;;;;5055160;28;48467;-81
2021/06/10 11:55:57;;;;;;;6.25;3.40;;;;;;;;;;5050321;28;38600;-80
2021/06/10 11:58:26;;;;;;;6.18;3.45;;;;;;;;;;5075878;28;39116;-79
2021/06/10 12:00:53;;;;;;;3.65;3.17;;;;;;;;;;5054031;28;38248;-79
2021/06/10 12:03:20;;;;;;;4.07;3.45;;;;;;;;;;5055854;27;38945;-79
2021/06/10 12:05:48;;;;;;;7.47;3.53;;;;;;;;;;5072137;27;39222;-80
2021/06/10 12:08:15;;;;;;;6.43;3.45;;;;;;;;;;5053242;28;40156;-79
2021/06/10 12:10:47;;;;;;;3.55;3.00;;;;;;;;;;5057305;28;37070;-79
2021/06/10 12:13:13;;;;;;;3.30;3.00;;;;;;;;;;5057489;28;40632;-81
2021/06/10 12:15:44;;;;;;;6.45;3.50;;;;;;;;;;5085697;27;40005;-79
2021/06/10 12:18:20;;;;;;;5.60;3.28;;;;;;;;;;5085400;27;39741;-79
2021/06/10 12:20:51;;;;;;;3.20;2.60;;;;;;;;;;5074605;27;37384;-81
2021/06/10 12:23:19;;;;;;;3.42;2.70;;;;;;;;;;5062682;27;39288;-81
2021/06/10 12:25:50;;;;;;;4.15;2.70;;;;;;;;;;5053480;27;38596;-79
2021/06/10 12:28:46;;;;;;;5.23;3.60;;;;;;;;;;5058278;28;39953;-80
2021/06/10 12:31:14;;;;;;;6.95;4.15;;;;;;;;;;5039848;27;37181;-80
2021/06/10 12:33:42;;;;;;;3.80;3.10;;;;;;;;;;5057667;27;39205;-81
2021/06/10 12:36:17;;;;;;;3.05;2.30;;;;;;;;;;5071878;27;38418;-82
2021/06/10 12:38:45;;;;;;;3.78;2.47;;;;;;;;;;5067034;27;38024;-80
2021/06/10 12:41:13;;;;;;;2.85;2.50;;;;;;;;;;5046742;27;37378;-79
2021/06/10 12:43:39;;;;;;;3.00;2.33;;;;;;;;;;5051642;27;38787;-81
2021/06/10 12:46:07;;;;;;;2.90;2.55;;;;;;;;;;5055593;28;40065;-80
2021/06/10 12:48:35;;;;;;;2.47;2.28;;;;;;;;;;5058358;28;39183;-78
2021/06/10 12:51:23;;;;;;;2.20;2.00;;;;;;;;;;5059196;28;38552;-79
2021/06/10 12:53:55;;;;;;;1.60;1.50;;;;;;;;;;5058228;27;48705;-81
2021/06/10 12:56:31;;;;;;;2.00;1.80;;;;;;;;;;5062950;28;40068;-81
2021/06/10 12:58:57;;;;;;;2.53;1.90;;;;;;;;;;5061551;28;38345;-80
2021/06/10 13:01:25;;;;;;;6.90;2.45;;;;;;;;;;5064698;27;36961;-79
2021/06/10 13:03:51;;;;;;;5.10;2.20;;;;;;;;;;5058227;27;39760;-79
2021/06/10 13:06:25;;;;;;;3.20;1.95;;;;;;;;;;5063037;27;39412;-79
2021/06/10 13:08:51;;;;;;;6.85;2.50;;;;;;;;;;5056065;28;38618;-80
2021/06/10 13:11:19;;;;;;;3.78;2.88;;;;;;;;;;5055750;27;37385;-78
2021/06/10 13:13:45;;;;;;;3.72;3.33;;;;;;;;;;5063614;28;40554;-79
2021/06/10 13:16:15;;;;;;;4.88;3.20;;;;;;;;;;5058342;27;39536;-78
2021/06/10 13:18:41;;;;;;;3.40;2.85;;;;;;;;;;5054841;27;38918;-79
2021/06/10 13:21:13;;;;;;;3.88;2.97;;;;;;;;;;5052852;28;37020;-80
2021/06/10 13:23:43;;;;;;;6.53;4.10;;;;;;;;;;5047006;27;39677;-78
2021/06/10 13:26:12;;;;;;;4.75;3.20;;;;;;;;;;5048513;28;37837;-79
2021/06/10 13:28:39;;;;;;;3.70;3.17;;;;;;;;;;5060559;27;39036;-80
2021/06/10 13:31:15;;;;;;;5.05;2.90;;;;;;;;;;5061131;27;20041;-79
2021/06/10 13:33:42;;;;;;;4.40;3.50;;;;;;;;;;5056525;28;40151;-79
2021/06/10 13:36:14;;;;;;;8.68;3.10;;;;;;;;;;5054779;28;37532;-79
2021/06/10 13:38:42;;;;;;;2.13;1.60;;;;;;;;;;5062526;28;38509;-79
2021/06/10 13:41:10;;;;;;;2.15;1.95;;;;;;;;;;5064041;27;37961;-79
2021/06/10 13:43:37;;;;;;;2.65;2.45;;;;;;;;;;5060517;28;38800;-80
2021/06/10 13:46:04;;;;;;;2.38;2.17;;;;;;;;;;5059164;27;39619;-79
2021/06/10 13:48:30;;;;;;;3.10;2.15;;;;;;;;;;5063026;27;38919;-79
2021/06/10 13:50:57;;;;;;;4.57;2.88;;;;;;;;;;5053451;28;37915;-79
2021/06/10 13:53:23;;;;;;;3.92;2.53;;;;;;;;;;5059161;27;38896;-79
2021/06/10 13:55:49;;;;;;;3.05;1.90;;;;;;;;;;5054801;27;38817;-78
2021/06/10 13:58:17;;;;;;;1.85;1.70;;;;;;;;;;5055389;28;39571;-79
2021/06/10 14:00:46;;;;;;;4.18;1.75;;;;;;;;;;5054078;28;37154;-78
2021/06/10 14:03:12;;;;;;;2.25;1.65;;;;;;;;;;5060141;28;39222;-79
2021/06/10 14:05:38;;;;;;;1.98;1.30;;;;;;;;;;5049082;27;38594;-81
2021/06/10 14:08:05;;;;;;;2.63;1.55;;;;;;;;;;5049423;27;39608;-80
2021/06/10 14:10:32;;;;;;;3.38;1.42;;;;;;;;;;5058276;28;38594;-80
2021/06/10 14:12:58;;;;;;;1.50;1.38;;;;;;;;;;5060404;28;41409;-79
2021/06/10 14:15:24;;;;;;;1.92;1.10;;;;;;;;;;5054660;27;38764;-77
2021/06/10 14:17:51;;;;;;;2.53;1.50;;;;;;;;;;5048971;28;39360;-78
2021/06/10 14:20:17;;;;;;;2.35;2.08;;;;;;;;;;5053840;28;37933;-79
2021/06/10 14:22:44;;;;;;;1.83;1.63;;;;;;;;;;5046946;28;40471;-77
2021/06/10 14:25:11;;;;;;;2.05;1.80;;;;;;;;;;5060445;28;39051;-77
2021/06/10 14:27:38;;;;;;;3.35;1.98;;;;;;;;;;5059910;28;38952;-76
2021/06/10 14:30:46;;;;;;;1.95;1.60;;;;;;;;;;5030600;28;38482;-78
2021/06/10 14:33:12;;;;;;;1.70;1.58;;;;;;;;;;5034528;28;48706;-78
2021/06/10 14:35:38;;;;;;;3.72;2.83;;;;;;;;;;5060161;28;38695;-76
2021/06/10 14:38:07;;;;;;;3.40;3.10;;;;;;;;;;5063402;28;39208;-79
2021/06/10 14:40:34;;;;;;;4.07;2.72;;;;;;;;;;5024839;28;37056;-78
2021/06/10 14:43:00;;;;;;;3.30;2.80;;;;;;;;;;5051710;28;39231;-78
2021/06/10 14:45:28;;;;;;;4.03;2.20;;;;;;;;;;5029583;27;48655;-80
2021/06/10 14:47:54;;;;;;;2.83;2.33;;;;;;;;;;5063458;28;36847;-79
2021/06/10 14:50:21;;;;;;;1.95;1.73;;;;;;;;;;5063375;28;37220;-77
2021/06/10 14:52:47;;;;;;;2.85;2.47;;;;;;;;;;5069301;28;39866;-78
2021/06/10 14:55:14;;;;;;;1.92;1.83;;;;;;;;;;5058032;28;38260;-78